Time;durP1;ratioP1;P1;durP2;ratioP2;P2;SDS_P1;SDS_P2;PMS_P1;PMS_P2;Temp;Humidity;BMP_temperature;BMP_pressure;BME280_temperature;BME280_humidity;BME280_pressure;Samples;Min_cycle;Max_cycle;Signal;HPM_P1;HPM_P2
2021/08/06 00:01:28;;;;;;;8.67;8.27;;;24.00;95.40;;;;;;3542636;40;20481;-59
2021/08/06 00:03:56;;;;;;;9.40;9.00;;;24.00;95.40;;;;;;3543449;40;20461;-59
2021/08/06 00:06:27;;;;;;;9.07;8.67;;;24.00;95.40;;;;;;3543014;40;20567;-60
2021/08/06 00:08:54;;;;;;;8.90;8.50;;;24.00;95.40;;;;;;3536236;40;20918;-58
2021/08/06 00:11:27;;;;;;;8.20;7.90;;;24.00;95.40;;;;;;3543740;40;20523;-58
2021/08/06 00:13:55;;;;;;;8.27;7.87;;;24.00;95.40;;;;;;3544180;40;20805;-59
2021/08/06 00:16:24;;;;;;;8.77;8.37;;;24.00;95.40;;;;;;3544291;40;20497;-59
2021/08/06 00:18:52;;;;;;;7.87;7.57;;;24.00;95.40;;;;;;3544141;40;20788;-59
2021/08/06 00:21:20;;;;;;;8.70;8.40;;;24.00;95.40;;;;;;3544303;40;20466;-59
2021/08/06 00:23:48;;;;;;;8.70;8.40;;;24.00;95.40;;;;;;3543954;40;21134;-59
2021/08/06 00:26:16;;;;;;;8.47;8.17;;;24.00;95.40;;;;;;3543850;40;20496;-59
2021/08/06 00:28:44;;;;;;;8.90;8.50;;;24.00;95.40;;;;;;3544114;40;20481;-59
2021/08/06 00:31:12;;;;;;;8.60;8.20;;;24.00;95.40;;;;;;3544482;40;20473;-60
2021/08/06 00:33:41;;;;;;;8.13;7.83;;;24.00;95.40;;;;;;3543122;40;20848;-59
2021/08/06 00:36:12;;;;;;;8.97;8.57;;;24.00;95.40;;;;;;3543796;40;20466;-58
2021/08/06 00:38:39;;;;;;;9.40;8.90;;;24.00;95.40;;;;;;3544571;40;20470;-59
2021/08/06 00:41:07;;;;;;;9.07;8.77;;;24.00;95.40;;;;;;3534866;40;20470;-59
2021/08/06 00:43:36;;;;;;;8.37;8.07;;;24.00;95.40;;;;;;3542037;40;21091;-59
2021/08/06 00:46:13;;;;;;;9.20;8.80;;;24.00;95.40;;;;;;3541521;40;20774;-59
2021/08/06 00:48:43;;;;;;;8.87;8.50;;;24.00;95.40;;;;;;3541565;40;21014;-58
2021/08/06 00:51:12;;;;;;;8.50;8.20;;;24.00;95.40;;;;;;3542587;40;20743;-58
2021/08/06 00:53:44;;;;;;;8.30;8.00;;;24.00;95.40;;;;;;3540360;40;20525;-59
2021/08/06 00:56:12;;;;;;;9.03;8.73;;;24.00;95.40;;;;;;3532160;40;20530;-58
2021/08/06 00:58:41;;;;;;;8.93;8.53;;;24.00;95.40;;;;;;3532714;40;20470;-59
2021/08/06 01:01:20;;;;;;;9.17;8.77;;;24.00;95.40;;;;;;3535193;40;20470;-59
2021/08/06 01:04:02;;;;;;;8.57;8.27;;;24.00;95.40;;;;;;3532800;40;20478;-59
2021/08/06 01:06:43;;;;;;;8.60;8.20;;;24.00;95.40;;;;;;3533590;40;20767;-60
2021/08/06 01:09:20;;;;;;;8.20;7.90;;;24.00;95.40;;;;;;3525100;40;20537;-57
2021/08/06 01:11:53;;;;;;;8.33;8.03;;;24.00;95.40;;;;;;3533505;40;20473;-59
2021/08/06 01:14:24;;;;;;;9.40;9.00;;;24.00;95.40;;;;;;3517968;40;20481;-59
2021/08/06 01:16:58;;;;;;;9.47;9.07;;;24.00;95.40;;;;;;3525164;40;20549;-60
2021/08/06 01:19:44;;;;;;;8.43;8.13;;;24.00;95.40;;;;;;3533396;40;20455;-59
2021/08/06 01:22:22;;;;;;;8.30;8.00;;;24.00;95.40;;;;;;3533177;40;20482;-58
2021/08/06 01:25:00;;;;;;;9.27;8.87;;;24.00;95.40;;;;;;3533784;40;20465;-59
2021/08/06 01:27:32;;;;;;;8.80;8.40;;;24.00;95.40;;;;;;3532416;40;20940;-59
2021/08/06 01:30:01;;;;;;;8.63;8.33;;;24.00;95.40;;;;;;3524108;40;20455;-57
2021/08/06 01:32:30;;;;;;;9.27;8.87;;;24.00;95.40;;;;;;3532853;40;20483;-59
2021/08/06 01:35:00;;;;;;;8.60;8.30;;;24.00;95.40;;;;;;3525139;40;20486;-59
2021/08/06 01:37:28;;;;;;;8.30;8.00;;;24.00;95.40;;;;;;3533634;40;20465;-59
2021/08/06 01:39:56;;;;;;;8.90;8.43;;;23.90;95.30;;;;;;3524429;40;20483;-60
2021/08/06 01:42:35;;;;;;;8.50;8.20;;;24.00;95.40;;;;;;3533649;40;20558;-59
2021/08/06 01:45:09;;;;;;;8.20;7.90;;;24.00;95.40;;;;;;3534381;40;20585;-58
2021/08/06 01:47:43;;;;;;;10.10;9.60;;;24.00;95.40;;;;;;3524194;40;20514;-59
2021/08/06 01:50:23;;;;;;;9.20;8.80;;;24.00;95.40;;;;;;3533375;40;20466;-58
2021/08/06 01:52:59;;;;;;;8.73;8.33;;;24.00;95.40;;;;;;3532588;40;20505;-57
2021/08/06 01:55:34;;;;;;;9.07;8.67;;;24.00;95.40;;;;;;3534135;40;20569;-59
2021/08/06 01:58:04;;;;;;;9.30;8.90;;;24.00;95.40;;;;;;3543888;40;20852;-59
2021/08/06 02:00:39;;;;;;;9.00;8.70;;;24.00;95.40;;;;;;3542576;40;20540;-58
2021/08/06 02:03:09;;;;;;;9.13;8.67;;;24.00;95.40;;;;;;3541791;40;20574;-59
2021/08/06 02:05:37;;;;;;;9.03;8.63;;;24.00;95.40;;;;;;3543526;40;20465;-58
2021/08/06 02:08:14;;;;;;;9.30;9.00;;;24.00;95.40;;;;;;3543021;40;20683;-57
2021/08/06 02:10:45;;;;;;;9.20;8.90;;;24.00;95.30;;;;;;3535414;40;20476;-59
2021/08/06 02:13:17;;;;;;;8.50;8.17;;;24.00;95.40;;;;;;3543903;40;20849;-58
2021/08/06 02:15:48;;;;;;;8.30;8.00;;;24.00;95.40;;;;;;3535477;40;20865;-58
2021/08/06 02:18:22;;;;;;;8.50;8.20;;;24.00;95.30;;;;;;3543554;40;20489;-59
2021/08/06 02:21:00;;;;;;;8.60;8.30;;;24.00;95.40;;;;;;3543721;40;20540;-59
2021/08/06 02:23:34;;;;;;;8.83;8.47;;;24.00;95.40;;;;;;3536315;40;20842;-58
2021/08/06 02:26:06;;;;;;;8.43;8.13;;;24.00;95.40;;;;;;3535884;40;20856;-58
2021/08/06 02:28:36;;;;;;;8.93;8.53;;;24.00;95.40;;;;;;3535646;40;20481;-59
2021/08/06 02:31:05;;;;;;;8.33;8.03;;;24.00;95.40;;;;;;3535281;40;20904;-58
2021/08/06 02:33:34;;;;;;;8.40;8.07;;;24.00;95.40;;;;;;3543693;40;20454;-59
2021/08/06 02:36:01;;;;;;;8.93;8.53;;;24.00;95.40;;;;;;3544148;40;20766;-59
2021/08/06 02:38:28;;;;;;;9.00;8.60;;;24.00;95.40;;;;;;3535294;40;20658;-59
2021/08/06 02:40:56;;;;;;;9.20;8.80;;;24.00;95.40;;;;;;3544416;40;20540;-59
2021/08/06 02:43:24;;;;;;;8.73;8.43;;;24.00;95.40;;;;;;3544304;40;20464;-59
2021/08/06 02:45:52;;;;;;;8.30;8.00;;;24.00;95.40;;;;;;3544242;40;20465;-59
2021/08/06 02:48:20;;;;;;;8.50;8.20;;;24.00;95.40;;;;;;3543207;40;20557;-59
2021/08/06 02:50:48;;;;;;;8.43;8.13;;;24.00;95.30;;;;;;3545110;40;20782;-58
2021/08/06 02:53:18;;;;;;;9.37;8.97;;;23.90;95.30;;;;;;3543594;40;20497;-58
2021/08/06 02:55:45;;;;;;;9.17;8.80;;;24.00;95.30;;;;;;3542820;40;20525;-59
2021/08/06 02:58:13;;;;;;;9.40;9.00;;;24.00;95.40;;;;;;3543494;40;20449;-60
2021/08/06 03:00:41;;;;;;;8.80;8.50;;;24.00;95.40;;;;;;3544639;40;20477;-60
2021/08/06 03:03:11;;;;;;;8.53;8.23;;;24.00;95.30;;;;;;3544288;40;20489;-60
2021/08/06 03:05:39;;;;;;;8.20;7.90;;;24.00;95.30;;;;;;3535412;40;20473;-58
2021/08/06 03:08:06;;;;;;;9.33;8.93;;;24.00;95.30;;;;;;3543755;40;20483;-60
2021/08/06 03:10:35;;;;;;;8.47;8.07;;;24.00;95.30;;;;;;3542948;40;20829;-60
2021/08/06 03:13:02;;;;;;;9.37;8.87;;;24.00;95.40;;;;;;3542668;40;20911;-60
2021/08/06 03:15:31;;;;;;;9.37;9.00;;;24.00;95.30;;;;;;3542224;40;20837;-60
2021/08/06 03:17:59;;;;;;;9.20;8.90;;;24.00;95.40;;;;;;3543666;40;20656;-59
2021/08/06 03:20:28;;;;;;;8.87;8.57;;;24.00;95.30;;;;;;3534320;40;20534;-60
2021/08/06 03:23:01;;;;;;;9.07;8.77;;;24.00;95.40;;;;;;3534033;40;20466;-58
2021/08/06 03:25:30;;;;;;;9.30;8.90;;;23.90;95.30;;;;;;3544284;40;20757;-58
2021/08/06 03:27:59;;;;;;;9.23;8.80;;;24.00;95.30;;;;;;3543248;40;20920;-59
2021/08/06 03:30:29;;;;;;;9.00;8.70;;;24.00;95.30;;;;;;3534729;40;20454;-58
2021/08/06 03:32:58;;;;;;;9.47;9.13;;;24.00;95.30;;;;;;3541934;40;20721;-59
2021/08/06 03:35:28;;;;;;;9.80;9.40;;;24.00;95.30;;;;;;3534400;40;20458;-60
2021/08/06 03:37:56;;;;;;;9.30;9.00;;;23.90;95.30;;;;;;3543134;40;20538;-59
2021/08/06 03:40:23;;;;;;;9.30;9.00;;;23.90;95.30;;;;;;3543344;40;20797;-59
2021/08/06 03:42:50;;;;;;;9.10;8.80;;;23.90;95.30;;;;;;3542745;40;20856;-60
2021/08/06 03:45:18;;;;;;;9.27;8.87;;;23.90;95.30;;;;;;3543464;40;20875;-60
2021/08/06 03:47:45;;;;;;;8.17;7.87;;;24.00;95.30;;;;;;3543874;40;20547;-59
2021/08/06 03:50:13;;;;;;;8.37;8.07;;;23.90;95.30;;;;;;3532401;40;20560;-60
2021/08/06 03:52:43;;;;;;;9.53;9.23;;;24.00;95.30;;;;;;3544082;40;20477;-59
2021/08/06 03:55:10;;;;;;;9.77;9.37;;;23.90;95.30;;;;;;3544709;40;20826;-57
2021/08/06 03:57:49;;;;;;;10.27;9.87;;;23.90;95.30;;;;;;3543209;40;20469;-60
2021/08/06 04:00:17;;;;;;;10.07;9.67;;;23.90;95.30;;;;;;3541750;40;20937;-59
2021/08/06 04:02:45;;;;;;;10.27;9.87;;;24.00;95.30;;;;;;3542814;40;20545;-59
2021/08/06 04:05:13;;;;;;;9.40;9.10;;;23.90;95.30;;;;;;3533968;40;20638;-59
2021/08/06 04:07:47;;;;;;;9.30;9.00;;;24.00;95.30;;;;;;3533296;40;20478;-59
2021/08/06 04:10:19;;;;;;;9.40;9.00;;;24.00;95.30;;;;;;3535147;40;20482;-60
2021/08/06 04:12:48;;;;;;;10.03;9.63;;;23.90;95.30;;;;;;3535024;40;20585;-60
2021/08/06 04:15:16;;;;;;;9.83;9.43;;;23.90;95.30;;;;;;3542596;40;20458;-60
2021/08/06 04:17:44;;;;;;;9.80;9.50;;;24.00;95.30;;;;;;3542760;40;20556;-59
2021/08/06 04:20:12;;;;;;;9.67;9.37;;;23.90;95.30;;;;;;3540578;40;20898;-59
2021/08/06 04:22:41;;;;;;;9.83;9.40;;;23.90;95.30;;;;;;3538670;40;20525;-60
2021/08/06 04:25:13;;;;;;;10.40;10.00;;;23.90;95.30;;;;;;3539349;40;20458;-60
2021/08/06 04:27:41;;;;;;;10.20;9.80;;;23.90;95.30;;;;;;3539563;40;20780;-59
2021/08/06 04:30:10;;;;;;;11.00;10.60;;;23.90;95.60;;;;;;3539931;40;20470;-60
2021/08/06 04:32:38;;;;;;;10.40;10.00;;;23.90;95.30;;;;;;3540420;40;20462;-59
2021/08/06 04:35:06;;;;;;;10.17;9.77;;;23.90;95.30;;;;;;3531350;40;20480;-59
2021/08/06 04:37:33;;;;;;;10.27;9.87;;;23.90;95.30;;;;;;3540518;40;20915;-60
2021/08/06 04:40:01;;;;;;;9.63;9.33;;;23.90;95.30;;;;;;3539864;40;20469;-60
2021/08/06 04:42:30;;;;;;;9.53;9.13;;;23.90;95.30;;;;;;3537823;40;20482;-60
2021/08/06 04:44:58;;;;;;;9.80;9.50;;;23.90;95.30;;;;;;3538364;40;20701;-59
2021/08/06 04:47:25;;;;;;;9.23;8.93;;;23.90;95.20;;;;;;3539375;40;20465;-59
2021/08/06 04:49:52;;;;;;;9.73;9.40;;;23.90;95.30;;;;;;3538446;40;20561;-60
2021/08/06 04:52:20;;;;;;;9.10;8.80;;;23.90;95.20;;;;;;3537605;40;20534;-58
2021/08/06 04:54:47;;;;;;;9.20;8.90;;;23.90;95.20;;;;;;3538469;40;20474;-59
2021/08/06 04:57:14;;;;;;;9.30;9.00;;;23.90;95.20;;;;;;3538278;40;20477;-59
2021/08/06 04:59:43;;;;;;;9.57;9.17;;;23.90;95.20;;;;;;3535956;40;20806;-59
2021/08/06 05:02:11;;;;;;;9.37;9.07;;;23.90;95.20;;;;;;3535947;40;20487;-60
2021/08/06 05:04:38;;;;;;;10.20;9.80;;;23.90;95.20;;;;;;3535271;40;20450;-59
2021/08/06 05:07:05;;;;;;;10.00;9.60;;;23.90;95.60;;;;;;3537894;40;20525;-59
2021/08/06 05:09:33;;;;;;;9.40;9.10;;;23.90;95.20;;;;;;3537370;40;20477;-59
2021/08/06 05:12:00;;;;;;;10.03;9.63;;;23.90;95.30;;;;;;3534467;40;20575;-60
2021/08/06 05:14:28;;;;;;;9.50;9.10;;;23.90;95.30;;;;;;3534226;40;20462;-59
2021/08/06 05:16:57;;;;;;;10.03;9.63;;;23.90;95.20;;;;;;3535955;40;20481;-59
2021/08/06 05:19:24;;;;;;;10.27;9.90;;;23.90;95.20;;;;;;3534231;40;20482;-60
2021/08/06 05:21:52;;;;;;;10.13;9.73;;;23.90;95.20;;;;;;3533835;40;20715;-60
2021/08/06 05:24:19;;;;;;;9.87;9.57;;;23.90;95.20;;;;;;3536134;40;20582;-60
2021/08/06 05:26:47;;;;;;;10.10;9.80;;;23.90;95.20;;;;;;3532544;40;20466;-59
2021/08/06 05:29:14;;;;;;;9.90;9.53;;;23.90;95.20;;;;;;3525943;40;20899;-60
2021/08/06 05:31:42;;;;;;;10.13;9.80;;;23.90;95.20;;;;;;3533059;40;20537;-57
2021/08/06 05:34:11;;;;;;;10.00;9.60;;;23.90;95.20;;;;;;3531663;40;20610;-59
2021/08/06 05:36:39;;;;;;;10.13;9.83;;;23.90;95.60;;;;;;3525098;40;20780;-60
2021/08/06 05:39:06;;;;;;;10.03;9.70;;;23.90;95.20;;;;;;3532587;40;20521;-59
2021/08/06 05:41:33;;;;;;;9.70;9.40;;;23.90;95.20;;;;;;3533531;40;20564;-60
2021/08/06 05:44:01;;;;;;;9.73;9.37;;;23.90;95.20;;;;;;3525238;40;20814;-60
2021/08/06 05:46:28;;;;;;;9.93;9.53;;;23.90;95.20;;;;;;3533696;40;20473;-60
2021/08/06 05:48:57;;;;;;;9.17;8.87;;;23.90;95.20;;;;;;3533030;40;21108;-59
2021/08/06 05:51:26;;;;;;;9.70;9.40;;;23.90;95.20;;;;;;3531231;40;20473;-59
2021/08/06 05:53:53;;;;;;;9.53;9.23;;;23.90;95.20;;;;;;3529071;40;20896;-60
2021/08/06 05:56:21;;;;;;;9.50;9.20;;;23.90;95.20;;;;;;3528064;40;20858;-59
2021/08/06 05:58:53;;;;;;;10.00;9.70;;;23.90;95.20;;;;;;3531414;40;20674;-60
2021/08/06 06:01:21;;;;;;;9.73;9.40;;;23.90;95.20;;;;;;3528662;40;20485;-59
2021/08/06 06:03:57;;;;;;;9.67;9.37;;;23.90;95.20;;;;;;3529937;40;21016;-60
2021/08/06 06:06:49;;;;;;;9.93;9.53;;;23.90;95.20;;;;;;3530662;40;20662;-60
2021/08/06 06:09:16;;;;;;;9.90;9.50;;;23.90;95.20;;;;;;3526228;40;20524;-60
2021/08/06 06:11:43;;;;;;;9.90;9.50;;;23.90;95.20;;;;;;3529554;40;20724;-59
2021/08/06 06:14:14;;;;;;;9.50;9.20;;;23.90;95.20;;;;;;3518763;40;20835;-60
2021/08/06 06:16:42;;;;;;;10.10;9.70;;;23.90;95.20;;;;;;3526467;40;20740;-60
2021/08/06 06:19:10;;;;;;;9.80;9.50;;;23.90;95.20;;;;;;3516133;40;20474;-59
2021/08/06 06:21:38;;;;;;;9.50;9.10;;;23.90;95.20;;;;;;3526579;40;20473;-60
2021/08/06 06:24:07;;;;;;;9.60;9.30;;;23.90;95.20;;;;;;3526817;40;21072;-60
2021/08/06 06:26:34;;;;;;;10.03;9.63;;;23.90;95.20;;;;;;3528278;40;20784;-60
2021/08/06 06:29:02;;;;;;;9.60;9.30;;;23.90;95.20;;;;;;3525752;40;20466;-58
2021/08/06 06:31:30;;;;;;;10.17;9.77;;;23.90;95.20;;;;;;3525736;40;20546;-58
2021/08/06 06:34:00;;;;;;;9.73;9.43;;;23.90;95.20;;;;;;3526672;40;20824;-59
2021/08/06 06:36:27;;;;;;;9.70;9.40;;;23.90;95.20;;;;;;3526652;40;20722;-59
2021/08/06 06:38:57;;;;;;;9.67;9.37;;;23.90;95.20;;;;;;3519804;40;20484;-58
2021/08/06 06:41:26;;;;;;;10.20;9.80;;;23.90;95.20;;;;;;3527784;40;20557;-60
2021/08/06 06:43:58;;;;;;;10.57;10.17;;;23.90;95.20;;;;;;3519352;40;20849;-59
2021/08/06 06:46:27;;;;;;;10.50;10.10;;;23.90;95.20;;;;;;3517174;40;20781;-59
2021/08/06 06:48:54;;;;;;;10.10;9.80;;;23.90;95.20;;;;;;3516514;40;20484;-58
2021/08/06 06:51:22;;;;;;;9.60;9.30;;;23.90;95.20;;;;;;3526974;40;20674;-59
2021/08/06 06:53:50;;;;;;;9.60;9.30;;;23.90;95.20;;;;;;3523886;40;20841;-60
2021/08/06 06:56:18;;;;;;;9.63;9.33;;;23.90;95.20;;;;;;3517217;40;20998;-60
2021/08/06 06:58:46;;;;;;;9.63;9.33;;;23.90;95.20;;;;;;3515222;40;20494;-59
2021/08/06 07:01:18;;;;;;;9.53;9.23;;;23.90;95.20;;;;;;3513295;40;21048;-59
2021/08/06 07:03:45;;;;;;;9.77;9.47;;;23.90;95.20;;;;;;3505622;40;20842;-60
2021/08/06 07:06:20;;;;;;;9.90;9.60;;;23.90;95.20;;;;;;3515169;40;20694;-59
2021/08/06 07:08:49;;;;;;;10.27;9.90;;;23.90;95.20;;;;;;3497485;40;20540;-60
2021/08/06 07:11:16;;;;;;;9.93;9.63;;;23.90;95.20;;;;;;3515609;40;20478;-59
2021/08/06 07:13:44;;;;;;;10.00;9.70;;;23.90;95.20;;;;;;3515856;40;20578;-59
2021/08/06 07:16:13;;;;;;;10.20;9.87;;;23.90;95.20;;;;;;3518492;40;21016;-60
2021/08/06 07:18:42;;;;;;;10.07;9.77;;;23.90;95.20;;;;;;3516029;40;20765;-60
2021/08/06 07:21:12;;;;;;;9.60;9.20;;;23.90;95.20;;;;;;3515024;40;20533;-59
2021/08/06 07:23:41;;;;;;;9.10;8.80;;;23.90;95.20;;;;;;3514803;40;20475;-60
2021/08/06 07:26:09;;;;;;;9.33;9.03;;;24.00;95.20;;;;;;3512245;40;20616;-60
2021/08/06 07:28:37;;;;;;;9.30;9.00;;;24.00;95.20;;;;;;3512452;40;20855;-59
2021/08/06 07:31:04;;;;;;;9.70;9.40;;;24.00;95.20;;;;;;3509994;40;20705;-60
2021/08/06 07:33:33;;;;;;;9.50;9.20;;;24.00;95.20;;;;;;3514119;40;20463;-57
2021/08/06 07:36:01;;;;;;;10.00;9.70;;;24.00;95.20;;;;;;3505585;40;20474;-60
2021/08/06 07:38:28;;;;;;;9.77;9.47;;;24.00;95.20;;;;;;3511544;40;20496;-60
2021/08/06 07:40:57;;;;;;;9.40;9.10;;;24.00;95.20;;;;;;3503600;40;20553;-58
2021/08/06 07:43:26;;;;;;;9.00;8.70;;;24.00;95.20;;;;;;3506109;40;20567;-59
2021/08/06 07:45:53;;;;;;;8.80;8.50;;;24.00;95.20;;;;;;3513420;40;20915;-59
2021/08/06 07:48:21;;;;;;;9.90;9.50;;;24.00;95.20;;;;;;3513099;40;21132;-60
2021/08/06 07:50:50;;;;;;;10.00;9.70;;;24.00;95.20;;;;;;3515285;40;20806;-59
2021/08/06 07:53:20;;;;;;;10.10;9.80;;;24.00;95.20;;;;;;3513145;40;21023;-60
2021/08/06 07:55:47;;;;;;;10.50;10.10;;;24.00;95.20;;;;;;3520728;40;20948;-60
2021/08/06 07:58:14;;;;;;;10.43;10.03;;;24.00;95.20;;;;;;3523280;40;21136;-60
2021/08/06 08:00:42;;;;;;;9.80;9.40;;;24.00;95.20;;;;;;3524683;40;20572;-59
2021/08/06 08:03:10;;;;;;;10.33;9.93;;;24.00;95.20;;;;;;3524514;40;20515;-60
2021/08/06 08:05:39;;;;;;;9.83;9.53;;;24.00;95.20;;;;;;3521519;40;20630;-59
2021/08/06 08:08:12;;;;;;;10.07;9.67;;;24.00;95.20;;;;;;3521788;40;20905;-59
2021/08/06 08:10:40;;;;;;;10.00;9.60;;;24.00;95.20;;;;;;3523032;40;20604;-58
2021/08/06 08:13:07;;;;;;;10.13;9.83;;;24.00;95.20;;;;;;3520192;40;20820;-58
2021/08/06 08:15:35;;;;;;;9.90;9.60;;;24.00;95.20;;;;;;3520253;40;20470;-58
2021/08/06 08:18:02;;;;;;;10.37;9.97;;;24.00;95.30;;;;;;3522987;40;20489;-59
2021/08/06 08:20:30;;;;;;;9.47;9.17;;;24.00;95.30;;;;;;3521157;40;20665;-59
2021/08/06 08:22:57;;;;;;;9.77;9.47;;;23.90;95.20;;;;;;3513340;40;20841;-60
2021/08/06 08:25:26;;;;;;;9.17;8.87;;;24.00;95.20;;;;;;3513980;40;20617;-59
2021/08/06 08:27:54;;;;;;;9.67;9.37;;;24.00;95.30;;;;;;3523222;40;20500;-58
2021/08/06 08:30:21;;;;;;;9.83;9.53;;;24.00;95.30;;;;;;3524408;40;20507;-58
2021/08/06 08:32:49;;;;;;;10.23;9.83;;;24.00;95.20;;;;;;3522078;40;20489;-56
2021/08/06 08:35:16;;;;;;;9.80;9.50;;;23.90;95.20;;;;;;3524577;40;20496;-58
2021/08/06 08:37:43;;;;;;;9.80;9.40;;;23.90;95.20;;;;;;3523774;40;20636;-59
2021/08/06 08:40:12;;;;;;;9.70;9.40;;;23.90;95.20;;;;;;3520723;40;21061;-58
2021/08/06 08:42:44;;;;;;;9.33;9.03;;;24.00;95.20;;;;;;3525176;40;20477;-58
2021/08/06 08:45:13;;;;;;;9.73;9.43;;;24.00;95.20;;;;;;3515635;40;20696;-58
2021/08/06 08:47:44;;;;;;;10.10;9.80;;;23.90;95.20;;;;;;3513482;40;20476;-58
2021/08/06 08:50:14;;;;;;;10.03;9.73;;;24.00;95.30;;;;;;3515074;40;21054;-57
2021/08/06 08:52:42;;;;;;;9.90;9.60;;;23.90;95.50;;;;;;3516315;40;20582;-58
2021/08/06 08:55:11;;;;;;;9.50;9.20;;;23.90;95.20;;;;;;3523588;40;20730;-58
2021/08/06 08:57:39;;;;;;;9.77;9.47;;;24.00;95.30;;;;;;3514431;40;20477;-59
2021/08/06 09:00:13;;;;;;;9.30;9.00;;;23.90;95.20;;;;;;3512479;40;20530;-58
2021/08/06 09:02:41;;;;;;;9.60;9.30;;;24.00;95.30;;;;;;3511943;40;20694;-58
2021/08/06 09:05:11;;;;;;;9.97;9.67;;;23.90;95.20;;;;;;3511481;40;20466;-56
2021/08/06 09:07:42;;;;;;;10.23;9.83;;;24.00;95.30;;;;;;3521504;40;20520;-59
2021/08/06 09:10:24;;;;;;;9.47;9.17;;;23.90;95.20;;;;;;3521032;40;20640;-58
2021/08/06 09:13:10;;;;;;;10.17;9.77;;;24.00;95.30;;;;;;3523301;40;21125;-58
2021/08/06 09:16:05;;;;;;;9.73;9.43;;;23.90;95.20;;;;;;3524428;40;20773;-59
2021/08/06 09:18:39;;;;;;;10.70;10.30;;;24.00;95.30;;;;;;3521574;40;20501;-59
2021/08/06 09:21:19;;;;;;;9.90;9.60;;;23.90;95.20;;;;;;3524207;40;20753;-59
2021/08/06 09:23:48;;;;;;;9.53;9.23;;;23.90;95.20;;;;;;3522272;40;20560;-59
2021/08/06 09:26:38;;;;;;;10.10;9.70;;;23.90;95.20;;;;;;3524222;40;20493;-59
2021/08/06 09:29:08;;;;;;;10.70;10.30;;;23.90;95.20;;;;;;3524780;40;20548;-59
2021/08/06 09:31:39;;;;;;;9.80;9.40;;;23.90;95.20;;;;;;3525333;40;20778;-60
2021/08/06 09:34:19;;;;;;;9.53;9.23;;;24.00;95.30;;;;;;3524378;40;21112;-59
2021/08/06 09:37:02;;;;;;;10.33;10.00;;;23.90;95.20;;;;;;3525378;40;20737;-60
2021/08/06 09:39:35;;;;;;;9.20;8.90;;;24.00;95.30;;;;;;3527876;40;20540;-58
2021/08/06 09:42:04;;;;;;;9.10;8.80;;;24.00;95.20;;;;;;3526387;40;20468;-59
2021/08/06 09:44:32;;;;;;;9.30;9.00;;;23.90;95.20;;;;;;3523900;40;20494;-58
2021/08/06 09:47:17;;;;;;;10.00;9.60;;;23.90;95.20;;;;;;3522204;40;20536;-59
2021/08/06 09:49:45;;;;;;;9.20;8.90;;;23.90;95.20;;;;;;3525601;40;20807;-58
2021/08/06 09:52:13;;;;;;;9.67;9.37;;;23.90;95.20;;;;;;3516263;40;20698;-60
2021/08/06 09:54:41;;;;;;;9.90;9.60;;;24.00;95.30;;;;;;3525713;40;20583;-60
2021/08/06 09:57:11;;;;;;;10.40;10.00;;;23.90;95.20;;;;;;3524658;40;20678;-59
2021/08/06 09:59:39;;;;;;;10.07;9.77;;;23.90;95.20;;;;;;3524308;40;20956;-59
2021/08/06 10:02:17;;;;;;;9.90;9.60;;;23.90;95.50;;;;;;3522359;40;20871;-58
2021/08/06 10:04:56;;;;;;;9.90;9.60;;;23.90;95.20;;;;;;3520935;40;20864;-60
2021/08/06 10:07:23;;;;;;;9.90;9.60;;;23.90;95.20;;;;;;3524668;40;20481;-60
2021/08/06 10:09:51;;;;;;;9.97;9.67;;;23.90;95.20;;;;;;3524365;40;20843;-60
2021/08/06 10:12:18;;;;;;;10.03;9.70;;;23.90;95.20;;;;;;3514358;40;20469;-59
2021/08/06 10:14:46;;;;;;;9.60;9.30;;;23.90;95.20;;;;;;3523976;40;20981;-59
2021/08/06 10:17:15;;;;;;;9.23;8.93;;;23.90;95.20;;;;;;3522113;40;20839;-60
2021/08/06 10:19:42;;;;;;;9.23;8.90;;;23.90;95.20;;;;;;3524935;40;20916;-59
2021/08/06 10:22:10;;;;;;;9.73;9.43;;;23.90;95.20;;;;;;3526241;40;20703;-59
2021/08/06 10:24:39;;;;;;;9.00;8.70;;;23.90;95.20;;;;;;3524882;40;21067;-60
2021/08/06 10:27:07;;;;;;;9.53;9.23;;;23.90;95.20;;;;;;3525618;40;20833;-59
2021/08/06 10:29:34;;;;;;;9.60;9.20;;;23.90;95.20;;;;;;3523979;40;20489;-59
2021/08/06 10:32:15;;;;;;;9.90;9.60;;;23.90;95.20;;;;;;3526001;40;20857;-59
2021/08/06 10:35:06;;;;;;;9.53;9.23;;;24.00;95.30;;;;;;3526039;40;20877;-60
2021/08/06 10:37:57;;;;;;;9.10;8.80;;;24.00;95.20;;;;;;3524821;40;20892;-59
2021/08/06 10:41:03;;;;;;;9.40;9.10;;;23.90;95.20;;;;;;3521758;40;20471;-59
2021/08/06 10:43:48;;;;;;;9.50;9.20;;;23.90;95.20;;;;;;3513872;40;20498;-59
2021/08/06 10:46:17;;;;;;;9.20;8.90;;;23.90;95.20;;;;;;3516626;40;20564;-59
2021/08/06 10:48:46;;;;;;;9.40;9.10;;;24.00;95.30;;;;;;3522473;40;20518;-59
2021/08/06 10:51:29;;;;;;;9.00;8.70;;;23.90;95.20;;;;;;3518806;40;20451;-60
2021/08/06 10:54:28;;;;;;;9.57;9.27;;;23.90;95.20;;;;;;3508740;40;20499;-59
2021/08/06 10:57:35;;;;;;;9.40;9.00;;;23.90;95.20;;;;;;3506919;40;20507;-60
2021/08/06 11:00:04;;;;;;;8.90;8.60;;;24.00;95.30;;;;;;3506330;40;20653;-58
2021/08/06 11:02:52;;;;;;;8.70;8.40;;;23.90;95.20;;;;;;3509877;40;20626;-60
2021/08/06 11:05:41;;;;;;;8.83;8.53;;;23.90;95.20;;;;;;3506593;40;20495;-59
2021/08/06 11:08:55;;;;;;;9.07;8.73;;;24.00;95.30;;;;;;3507745;40;20653;-59
2021/08/06 11:12:00;;;;;;;8.87;8.57;;;23.90;95.20;;;;;;3508489;40;20583;-59
2021/08/06 11:15:03;;;;;;;9.43;9.13;;;23.90;95.20;;;;;;3508661;40;20875;-60
2021/08/06 11:17:41;;;;;;;9.23;8.93;;;23.90;95.20;;;;;;3507067;40;20498;-60
2021/08/06 11:20:12;;;;;;;9.47;9.17;;;23.90;95.20;;;;;;3507357;40;20659;-59
2021/08/06 11:22:42;;;;;;;9.20;8.90;;;23.90;95.20;;;;;;3508931;40;20482;-59
2021/08/06 11:25:15;;;;;;;9.20;8.90;;;23.90;95.20;;;;;;3509600;40;20475;-60
2021/08/06 11:27:44;;;;;;;9.10;8.80;;;23.90;95.20;;;;;;3511788;40;21033;-59
2021/08/06 11:30:14;;;;;;;9.30;9.00;;;23.90;95.20;;;;;;3507682;40;21055;-60
2021/08/06 11:32:54;;;;;;;9.47;9.13;;;23.90;95.20;;;;;;3508140;40;20467;-59
2021/08/06 11:35:26;;;;;;;9.10;8.80;;;23.90;95.20;;;;;;3509342;40;20485;-59
2021/08/06 11:37:57;;;;;;;8.70;8.40;;;23.90;95.20;;;;;;3518350;40;20574;-58
2021/08/06 11:40:26;;;;;;;8.60;8.30;;;23.90;95.20;;;;;;3520359;40;20781;-60
2021/08/06 11:42:53;;;;;;;8.30;8.10;;;23.90;95.20;;;;;;3520083;40;20691;-59
2021/08/06 11:45:24;;;;;;;8.60;8.30;;;23.90;95.20;;;;;;3518912;40;20640;-60
2021/08/06 11:47:53;;;;;;;9.00;8.70;;;23.90;95.20;;;;;;3519999;40;20515;-59
2021/08/06 11:50:35;;;;;;;9.47;9.17;;;23.90;95.20;;;;;;3519018;40;20459;-60
2021/08/06 11:53:10;;;;;;;9.30;8.90;;;23.90;95.20;;;;;;3518865;40;20921;-59
2021/08/06 11:55:37;;;;;;;8.60;8.30;;;23.90;95.20;;;;;;3518224;40;20474;-60
2021/08/06 11:58:05;;;;;;;8.57;8.27;;;23.90;95.20;;;;;;3519057;40;20486;-59
2021/08/06 12:00:34;;;;;;;8.53;8.23;;;23.90;95.20;;;;;;3520167;40;20742;-59
2021/08/06 12:03:10;;;;;;;8.73;8.43;;;24.00;95.30;;;;;;3519061;40;20514;-60
2021/08/06 12:05:39;;;;;;;9.67;9.37;;;23.90;95.20;;;;;;3520608;40;20675;-59
2021/08/06 12:08:23;;;;;;;10.07;9.67;;;24.00;95.20;;;;;;3518894;40;21119;-59
2021/08/06 12:10:54;;;;;;;9.60;9.30;;;23.90;95.20;;;;;;3521515;40;20601;-59
2021/08/06 12:13:24;;;;;;;9.20;8.90;;;24.00;95.20;;;;;;3519490;40;20801;-59
2021/08/06 12:16:07;;;;;;;9.90;9.60;;;24.00;95.20;;;;;;3521442;40;20864;-59
2021/08/06 12:18:35;;;;;;;10.27;9.90;;;24.00;95.20;;;;;;3520346;40;20485;-59
2021/08/06 12:21:05;;;;;;;10.17;9.83;;;24.00;95.20;;;;;;3519578;40;20555;-59
2021/08/06 12:23:34;;;;;;;9.40;9.10;;;24.00;95.20;;;;;;3519552;40;20843;-60
2021/08/06 12:26:08;;;;;;;9.10;8.80;;;24.00;95.20;;;;;;3519507;40;20794;-60
2021/08/06 12:28:37;;;;;;;8.93;8.63;;;24.00;95.20;;;;;;3519274;40;20830;-58
2021/08/06 12:31:13;;;;;;;9.07;8.77;;;23.90;95.20;;;;;;3523013;40;20728;-60
2021/08/06 12:33:42;;;;;;;8.77;8.47;;;24.00;95.20;;;;;;3522008;40;20577;-59
2021/08/06 12:36:20;;;;;;;8.70;8.40;;;24.00;95.20;;;;;;3522235;40;20471;-59
2021/08/06 12:38:51;;;;;;;9.03;8.70;;;24.00;95.20;;;;;;3523084;40;20711;-59
2021/08/06 12:41:30;;;;;;;9.13;8.80;;;24.00;95.20;;;;;;3523871;40;20563;-59
2021/08/06 12:44:14;;;;;;;8.60;8.30;;;24.00;95.20;;;;;;3523283;40;20467;-60
2021/08/06 12:46:42;;;;;;;9.17;8.87;;;24.00;95.20;;;;;;3523783;40;20507;-60
2021/08/06 12:49:11;;;;;;;8.70;8.40;;;24.00;95.20;;;;;;3523638;40;20469;-59
2021/08/06 12:51:40;;;;;;;8.90;8.60;;;23.90;95.20;;;;;;3522860;40;20461;-59
2021/08/06 12:54:32;;;;;;;8.70;8.40;;;24.00;95.20;;;;;;3527876;40;20966;-60
2021/08/06 12:56:59;;;;;;;8.60;8.30;;;23.90;95.20;;;;;;3535468;40;20526;-59
2021/08/06 12:59:27;;;;;;;8.60;8.30;;;24.00;95.20;;;;;;3535303;40;20931;-59
2021/08/06 13:01:54;;;;;;;8.43;8.13;;;24.00;95.20;;;;;;3534373;40;20482;-59
2021/08/06 13:04:32;;;;;;;8.07;7.87;;;24.00;95.20;;;;;;3534074;40;20967;-60
2021/08/06 13:07:02;;;;;;;8.97;8.67;;;24.00;95.20;;;;;;3534946;40;21092;-59